Time;durP1;ratioP1;P1;durP2;ratioP2;P2;SDS_P1;SDS_P2;PMS_P1;PMS_P2;Temp;Humidity;BMP_temperature;BMP_pressure;BME280_temperature;BME280_humidity;BME280_pressure;Samples;Min_cycle;Max_cycle;Signal;HPM_P1;HPM_P2
2022/03/17 00:00:58;;;;;;;26.10;19.70;;;7.60;99.90;;;;;;5051301;28;20252;-74
2022/03/17 00:03:26;;;;;;;23.00;18.07;;;7.60;99.90;;;;;;5051541;28;20194;-74
2022/03/17 00:05:53;;;;;;;22.27;18.60;;;7.60;99.90;;;;;;5051350;28;20272;-75
2022/03/17 00:08:20;;;;;;;25.63;19.00;;;7.60;99.90;;;;;;5050426;28;20198;-75
2022/03/17 00:10:47;;;;;;;24.00;18.07;;;7.60;99.90;;;;;;5042887;28;20211;-75
2022/03/17 00:13:14;;;;;;;21.77;18.87;;;7.60;99.90;;;;;;5050896;28;20214;-75
2022/03/17 00:15:40;;;;;;;22.77;18.23;;;7.50;99.90;;;;;;5046185;28;20201;-74
2022/03/17 00:18:07;;;;;;;22.07;17.90;;;7.50;99.90;;;;;;5032516;28;20210;-75
2022/03/17 00:20:35;;;;;;;24.90;20.93;;;7.50;99.90;;;;;;5028963;28;20202;-75
2022/03/17 00:23:03;;;;;;;23.53;19.93;;;7.50;99.90;;;;;;5049754;28;20222;-74
2022/03/17 00:25:30;;;;;;;25.10;22.50;;;7.50;99.90;;;;;;5043241;28;20191;-75
2022/03/17 00:27:57;;;;;;;24.17;21.03;;;7.50;99.90;;;;;;5050247;28;20732;-75
2022/03/17 00:30:25;;;;;;;22.73;19.57;;;7.50;99.90;;;;;;5033060;28;20196;-73
2022/03/17 00:32:53;;;;;;;22.73;19.07;;;7.50;99.90;;;;;;5027959;28;20309;-75
2022/03/17 00:35:42;;;;;;;21.63;18.30;;;7.50;99.90;;;;;;5050382;28;20640;-74
2022/03/17 00:38:14;;;;;;;25.70;23.10;;;7.60;99.90;;;;;;5027348;28;20195;-75
2022/03/17 00:40:43;;;;;;;27.97;25.10;;;7.60;99.90;;;;;;5045130;28;20197;-74
2022/03/17 00:43:12;;;;;;;28.57;25.63;;;7.60;99.90;;;;;;5028454;28;20233;-75
2022/03/17 00:45:40;;;;;;;24.03;18.43;;;7.70;99.90;;;;;;5032326;28;20329;-74
2022/03/17 00:48:07;;;;;;;29.10;26.03;;;7.70;99.90;;;;;;5050246;28;20209;-74
2022/03/17 00:50:34;;;;;;;29.57;22.50;;;7.80;99.90;;;;;;5050648;28;20193;-74
2022/03/17 00:53:02;;;;;;;33.03;25.20;;;7.80;99.90;;;;;;5051026;28;20218;-75
2022/03/17 00:55:30;;;;;;;29.43;23.80;;;7.80;99.90;;;;;;5047000;28;20609;-75
2022/03/17 00:57:57;;;;;;;29.37;24.17;;;7.90;99.90;;;;;;5032165;28;20194;-75
2022/03/17 01:00:24;;;;;;;30.37;24.43;;;7.90;99.90;;;;;;5050707;28;20193;-74
2022/03/17 01:02:53;;;;;;;32.63;26.20;;;7.90;99.90;;;;;;5034487;28;20537;-75
2022/03/17 01:05:20;;;;;;;28.50;25.13;;;7.90;99.90;;;;;;5054190;28;20598;-74
2022/03/17 01:07:47;;;;;;;28.60;22.77;;;7.90;99.90;;;;;;5024905;28;20207;-75
2022/03/17 01:10:17;;;;;;;29.87;23.67;;;7.90;99.90;;;;;;5052561;28;20204;-75
2022/03/17 01:12:47;;;;;;;31.60;26.03;;;7.90;99.90;;;;;;5054496;28;20292;-75
2022/03/17 01:15:14;;;;;;;33.20;25.53;;;7.90;99.90;;;;;;5054159;28;20296;-75
2022/03/17 01:17:41;;;;;;;30.60;25.10;;;7.90;99.90;;;;;;5029724;28;20619;-75
2022/03/17 01:20:10;;;;;;;31.57;27.93;;;7.90;99.90;;;;;;5036057;28;20256;-75
2022/03/17 01:22:37;;;;;;;34.53;30.03;;;8.00;99.90;;;;;;5067465;23;20222;-75
2022/03/17 01:25:05;;;;;;;32.30;28.00;;;8.00;99.90;;;;;;5062481;28;20197;-76
2022/03/17 01:27:34;;;;;;;28.43;24.53;;;8.00;99.90;;;;;;5065439;28;20201;-75
2022/03/17 01:30:04;;;;;;;28.07;24.97;;;8.00;99.90;;;;;;5066627;28;20277;-78
2022/03/17 01:32:32;;;;;;;25.53;21.40;;;8.00;99.90;;;;;;5055100;28;20709;-75
2022/03/17 01:34:59;;;;;;;26.77;23.07;;;8.00;99.90;;;;;;5063986;28;20771;-75
2022/03/17 01:37:28;;;;;;;27.27;22.80;;;7.90;99.90;;;;;;5064573;28;20288;-75
2022/03/17 01:39:54;;;;;;;31.97;25.57;;;7.90;99.90;;;;;;5057312;28;20212;-78
2022/03/17 01:42:21;;;;;;;29.13;24.27;;;7.90;99.90;;;;;;5063865;28;20222;-75
2022/03/17 01:44:49;;;;;;;27.27;23.20;;;7.90;99.90;;;;;;5063943;28;20579;-77
2022/03/17 01:47:29;;;;;;;31.87;25.37;;;7.90;99.90;;;;;;5062982;28;20221;-75
2022/03/17 01:49:56;;;;;;;33.47;26.73;;;7.90;99.90;;;;;;5064111;28;20242;-75
2022/03/17 01:52:23;;;;;;;33.63;28.50;;;7.80;99.90;;;;;;5063675;28;20301;-75
2022/03/17 01:54:51;;;;;;;32.63;27.87;;;7.90;99.90;;;;;;5065204;28;20224;-77
2022/03/17 01:57:18;;;;;;;35.13;28.87;;;7.80;99.90;;;;;;5060909;28;20215;-76
2022/03/17 01:59:45;;;;;;;34.40;28.10;;;7.80;99.90;;;;;;5066905;28;20205;-77
2022/03/17 02:02:13;;;;;;;33.30;28.80;;;7.80;99.90;;;;;;5066202;28;20230;-78
2022/03/17 02:04:42;;;;;;;34.67;30.43;;;7.90;99.90;;;;;;5058641;28;20268;-75
2022/03/17 02:07:14;;;;;;;35.37;29.97;;;7.80;99.90;;;;;;5062945;28;20228;-76
2022/03/17 02:09:43;;;;;;;33.87;29.23;;;7.80;99.90;;;;;;5061350;28;20667;-77
2022/03/17 02:14:57;;;;;;;35.37;29.60;;;7.90;99.90;;;;;;5059196;28;20599;-78
2022/03/17 02:17:24;;;;;;;35.03;29.43;;;7.90;99.90;;;;;;5060295;28;20197;-75
2022/03/17 02:19:52;;;;;;;40.30;32.50;;;7.90;99.90;;;;;;5060599;28;20185;-75
2022/03/17 02:22:21;;;;;;;36.67;29.87;;;7.80;99.90;;;;;;5062309;28;20220;-78
2022/03/17 02:27:40;;;;;;;38.03;30.63;;;7.90;99.90;;;;;;5049732;28;20193;-75
2022/03/17 02:30:09;;;;;;;40.43;32.73;;;7.90;99.90;;;;;;5062242;28;20213;-76
2022/03/17 02:32:36;;;;;;;36.97;32.13;;;7.90;99.90;;;;;;5060864;28;20222;-75
2022/03/17 02:35:05;;;;;;;41.40;33.03;;;7.80;99.90;;;;;;5057897;28;20233;-76
2022/03/17 02:37:32;;;;;;;36.40;32.07;;;7.90;99.90;;;;;;5064055;28;20249;-77
2022/03/17 02:40:01;;;;;;;35.67;30.27;;;7.90;99.90;;;;;;5060520;28;20194;-77
2022/03/17 02:42:30;;;;;;;36.53;30.53;;;7.90;99.90;;;;;;5061237;28;20222;-77
2022/03/17 02:44:58;;;;;;;38.73;31.20;;;7.80;99.90;;;;;;5063046;28;20204;-75
2022/03/17 02:47:24;;;;;;;36.30;30.40;;;7.90;99.90;;;;;;5055930;28;20203;-75
2022/03/17 02:49:54;;;;;;;34.17;29.37;;;7.90;99.90;;;;;;5057627;28;20653;-77
2022/03/17 02:52:22;;;;;;;36.27;29.47;;;7.80;99.90;;;;;;5061560;28;20272;-76
2022/03/17 02:54:49;;;;;;;35.17;28.67;;;7.80;99.90;;;;;;5060790;28;20210;-77
2022/03/17 02:57:17;;;;;;;40.57;32.00;;;7.80;99.90;;;;;;5059876;28;20575;-76
2022/03/17 02:59:44;;;;;;;38.77;29.97;;;7.80;99.90;;;;;;5061087;28;20202;-76
2022/03/17 03:02:11;;;;;;;32.30;27.70;;;7.80;99.90;;;;;;5064168;28;20220;-77
2022/03/17 03:04:37;;;;;;;34.50;27.83;;;7.80;99.90;;;;;;5061659;28;20218;-76
2022/03/17 03:07:06;;;;;;;33.23;27.07;;;7.90;99.90;;;;;;5056666;28;20210;-78
2022/03/17 03:09:33;;;;;;;32.97;27.13;;;7.80;99.90;;;;;;5060768;28;20193;-75
2022/03/17 03:12:00;;;;;;;35.20;27.57;;;7.80;99.90;;;;;;5063272;28;20255;-79
2022/03/17 03:14:29;;;;;;;37.37;27.83;;;7.90;99.90;;;;;;5055429;28;20212;-77
2022/03/17 03:16:56;;;;;;;35.13;29.23;;;7.90;99.90;;;;;;5060535;28;20229;-75
2022/03/17 03:19:23;;;;;;;32.77;25.50;;;7.90;99.90;;;;;;5057120;28;20248;-75
2022/03/17 03:21:50;;;;;;;32.77;26.40;;;7.90;99.90;;;;;;5058197;28;20229;-77
2022/03/17 03:24:17;;;;;;;34.13;27.33;;;7.90;99.90;;;;;;5063157;28;20259;-78
2022/03/17 03:26:45;;;;;;;33.97;26.43;;;7.90;99.90;;;;;;5061179;28;20648;-78
2022/03/17 03:29:18;;;;;;;34.83;26.50;;;7.90;99.90;;;;;;5063384;28;20254;-76
2022/03/17 03:31:46;;;;;;;33.37;26.43;;;7.90;99.90;;;;;;5062327;28;20213;-76
2022/03/17 03:34:13;;;;;;;31.90;25.40;;;7.90;99.90;;;;;;5078247;28;20205;-80
2022/03/17 03:39:24;;;;;;;33.53;26.97;;;7.80;99.90;;;;;;5062297;28;20211;-77
2022/03/17 03:41:51;;;;;;;35.83;26.93;;;7.80;99.90;;;;;;5068413;28;20239;-79
2022/03/17 03:44:18;;;;;;;34.90;25.80;;;7.80;99.90;;;;;;5053474;28;20230;-76
2022/03/17 03:46:46;;;;;;;33.57;26.27;;;7.80;99.90;;;;;;5053381;28;20546;-79
2022/03/17 03:49:13;;;;;;;32.17;25.57;;;7.80;99.90;;;;;;5055262;28;20206;-80
2022/03/17 03:51:40;;;;;;;28.80;23.60;;;7.80;99.90;;;;;;5050183;28;20222;-80
2022/03/17 03:54:19;;;;;;;34.43;27.20;;;7.80;99.90;;;;;;5054029;28;20216;-79
2022/03/17 03:56:47;;;;;;;31.83;24.83;;;7.80;99.90;;;;;;5062243;28;20201;-80
2022/03/17 03:59:17;;;;;;;30.03;24.70;;;7.70;99.90;;;;;;5058075;28;20205;-78
2022/03/17 04:01:46;;;;;;;33.30;26.87;;;7.60;99.90;;;;;;5067375;28;20217;-78
2022/03/17 04:04:17;;;;;;;30.20;24.93;;;7.50;99.90;;;;;;5063061;28;20206;-79
2022/03/17 04:06:45;;;;;;;32.27;26.57;;;7.50;99.90;;;;;;5063461;28;20678;-78
2022/03/17 04:09:13;;;;;;;34.30;27.20;;;7.50;99.90;;;;;;5061098;28;20198;-79
2022/03/17 04:11:40;;;;;;;35.20;28.77;;;7.50;99.90;;;;;;5056893;28;20214;-82
2022/03/17 04:14:08;;;;;;;38.30;31.60;;;7.60;99.90;;;;;;5055691;28;20199;-83
2022/03/17 04:16:35;;;;;;;35.00;28.20;;;7.60;99.90;;;;;;5054575;28;20194;-82
2022/03/17 04:19:04;;;;;;;35.80;30.47;;;7.60;99.90;;;;;;5063657;28;20198;-80
2022/03/17 04:21:31;;;;;;;40.70;32.37;;;7.70;99.90;;;;;;5053571;28;20217;-82
2022/03/17 04:23:58;;;;;;;39.07;30.67;;;7.70;99.90;;;;;;5061889;28;20223;-79
2022/03/17 04:26:25;;;;;;;36.43;28.97;;;7.70;99.90;;;;;;5066878;28;20205;-80
2022/03/17 04:28:52;;;;;;;37.43;29.93;;;7.70;99.90;;;;;;5062218;28;20204;-80
2022/03/17 04:31:20;;;;;;;45.07;34.13;;;7.70;99.90;;;;;;5063529;28;20204;-79
2022/03/17 04:33:48;;;;;;;38.07;29.90;;;7.70;99.90;;;;;;5059040;28;20702;-77
2022/03/17 04:36:16;;;;;;;42.90;31.97;;;7.70;99.90;;;;;;5062699;28;20222;-80
2022/03/17 04:38:44;;;;;;;39.27;30.37;;;7.70;99.90;;;;;;5065827;28;20204;-77
2022/03/17 04:41:11;;;;;;;35.83;27.07;;;7.70;99.90;;;;;;5066764;28;20256;-80
2022/03/17 04:43:38;;;;;;;44.87;33.70;;;7.70;99.90;;;;;;5068118;28;20210;-77
2022/03/17 04:46:07;;;;;;;40.40;31.47;;;7.70;99.90;;;;;;5069236;28;20259;-79
2022/03/17 04:48:34;;;;;;;37.10;29.60;;;7.80;99.90;;;;;;5064821;28;20196;-79
2022/03/17 04:51:01;;;;;;;39.50;31.33;;;7.80;99.90;;;;;;5063873;28;20609;-78
2022/03/17 04:53:30;;;;;;;41.70;31.43;;;7.70;99.90;;;;;;5056170;28;20217;-77
2022/03/17 04:56:00;;;;;;;38.43;29.13;;;7.70;99.90;;;;;;5063413;28;20198;-77
2022/03/17 04:58:28;;;;;;;40.20;29.70;;;7.80;99.90;;;;;;5064053;28;20287;-77
2022/03/17 05:00:55;;;;;;;36.43;28.23;;;7.80;99.90;;;;;;5068590;28;20187;-79
2022/03/17 05:03:23;;;;;;;37.00;28.80;;;7.80;99.90;;;;;;5069595;28;20280;-78
2022/03/17 05:05:50;;;;;;;37.67;28.40;;;7.80;99.90;;;;;;5074548;28;20205;-79
2022/03/17 05:08:17;;;;;;;36.03;28.70;;;7.80;99.90;;;;;;5070291;28;20317;-80
2022/03/17 05:10:47;;;;;;;35.43;29.37;;;7.80;99.90;;;;;;5067390;28;20202;-77
2022/03/17 05:13:15;;;;;;;38.53;30.77;;;7.80;99.90;;;;;;5067895;28;20221;-79
2022/03/17 05:15:42;;;;;;;36.10;29.83;;;7.80;99.90;;;;;;5067421;28;20222;-77
2022/03/17 05:18:10;;;;;;;31.27;27.50;;;7.80;99.90;;;;;;5058841;28;20205;-78
2022/03/17 05:20:38;;;;;;;33.07;25.40;;;7.80;99.90;;;;;;5069435;28;20202;-79
2022/03/17 05:23:07;;;;;;;31.00;25.00;;;7.70;99.90;;;;;;5072543;28;20247;-79
2022/03/17 05:25:33;;;;;;;30.57;26.03;;;7.60;99.90;;;;;;5066545;28;20727;-80
2022/03/17 05:28:02;;;;;;;30.07;25.63;;;7.50;99.90;;;;;;5065605;28;20244;-78
2022/03/17 05:30:29;;;;;;;33.70;28.63;;;7.40;99.90;;;;;;5060788;28;20212;-80
2022/03/17 05:32:56;;;;;;;34.27;28.13;;;7.40;99.90;;;;;;5069216;28;20209;-78
2022/03/17 05:35:24;;;;;;;32.33;25.20;;;7.30;99.90;;;;;;5070212;28;20709;-79
2022/03/17 05:37:51;;;;;;;30.17;24.07;;;7.30;99.90;;;;;;5072930;28;20273;-80
2022/03/17 05:40:19;;;;;;;32.63;24.87;;;7.30;99.90;;;;;;5064462;28;20209;-80
2022/03/17 05:42:47;;;;;;;34.17;26.80;;;7.30;99.90;;;;;;5070610;28;20214;-80
2022/03/17 05:45:16;;;;;;;28.80;22.57;;;7.20;99.90;;;;;;5066440;28;20201;-79
2022/03/17 05:47:45;;;;;;;31.27;23.47;;;7.20;99.90;;;;;;5068296;28;20197;-80
2022/03/17 05:50:14;;;;;;;31.07;24.33;;;7.30;99.90;;;;;;5068831;28;20201;-76
2022/03/17 05:52:42;;;;;;;29.47;23.43;;;7.30;99.90;;;;;;5067316;28;20214;-79
2022/03/17 05:55:10;;;;;;;32.80;24.57;;;7.30;99.90;;;;;;5069760;28;20216;-80
2022/03/17 05:57:37;;;;;;;33.53;29.93;;;7.30;99.90;;;;;;5066266;28;20221;-80
2022/03/17 06:00:07;;;;;;;29.97;22.10;;;7.30;99.90;;;;;;5071506;28;20701;-77
2022/03/17 06:02:35;;;;;;;35.03;31.27;;;7.30;99.90;;;;;;5070867;28;20219;-79
2022/03/17 06:05:03;;;;;;;31.37;24.90;;;7.30;99.90;;;;;;5067922;28;20197;-79
2022/03/17 06:07:37;;;;;;;30.40;24.27;;;7.30;99.90;;;;;;5064056;28;20202;-79
2022/03/17 06:10:04;;;;;;;33.97;26.13;;;7.30;99.90;;;;;;5070538;28;20229;-79
2022/03/17 06:12:32;;;;;;;30.73;24.30;;;7.30;99.90;;;;;;5066253;28;20249;-79
2022/03/17 06:14:59;;;;;;;28.47;22.13;;;7.40;99.90;;;;;;5064605;28;20225;-80
2022/03/17 06:17:39;;;;;;;31.83;24.83;;;7.40;99.90;;;;;;5068233;28;20197;-80
2022/03/17 06:20:09;;;;;;;31.80;23.63;;;7.50;99.90;;;;;;5067820;28;20207;-80
2022/03/17 06:22:38;;;;;;;29.83;23.10;;;7.60;99.90;;;;;;5066726;28;20275;-79
2022/03/17 06:25:06;;;;;;;28.83;23.07;;;7.60;99.90;;;;;;5066964;28;20255;-80
2022/03/17 06:27:34;;;;;;;31.67;24.47;;;7.70;99.90;;;;;;5064011;28;20565;-80
2022/03/17 06:30:01;;;;;;;31.23;24.60;;;7.70;99.90;;;;;;5071430;28;20198;-79
2022/03/17 06:32:28;;;;;;;30.70;24.07;;;7.70;99.90;;;;;;5059253;28;20562;-81
2022/03/17 06:34:56;;;;;;;29.70;23.50;;;7.70;99.90;;;;;;5067197;28;20198;-80
2022/03/17 06:37:23;;;;;;;29.23;24.20;;;7.70;99.90;;;;;;5069863;28;20288;-82
2022/03/17 06:39:50;;;;;;;29.73;23.27;;;7.70;99.90;;;;;;5062117;28;20198;-79
2022/03/17 06:42:17;;;;;;;30.43;21.63;;;7.70;99.90;;;;;;5070231;28;20235;-79
2022/03/17 06:44:44;;;;;;;30.17;24.10;;;7.80;99.90;;;;;;5065548;28;20233;-79
2022/03/17 06:47:11;;;;;;;30.23;22.40;;;7.90;99.90;;;;;;5069065;28;20663;-81
2022/03/17 06:49:37;;;;;;;26.47;19.73;;;7.90;99.90;;;;;;5068504;28;20569;-79
2022/03/17 06:52:06;;;;;;;27.37;21.17;;;8.00;99.90;;;;;;5066059;28;20219;-78
2022/03/17 06:54:33;;;;;;;27.20;21.03;;;8.10;99.90;;;;;;5066560;28;20198;-79
2022/03/17 06:57:00;;;;;;;31.17;23.97;;;8.10;99.90;;;;;;5065412;28;20731;-79
2022/03/17 06:59:27;;;;;;;26.53;21.30;;;8.20;99.90;;;;;;5066756;28;20207;-80
2022/03/17 07:01:54;;;;;;;30.90;23.40;;;8.20;99.90;;;;;;5066964;28;20225;-78
2022/03/17 07:04:21;;;;;;;25.50;20.23;;;8.10;99.90;;;;;;5071083;28;20204;-78
2022/03/17 07:06:48;;;;;;;25.50;19.60;;;8.10;99.90;;;;;;5068938;28;20193;-80
2022/03/17 07:09:16;;;;;;;25.97;19.40;;;8.10;99.90;;;;;;5066118;28;20207;-82
2022/03/17 07:11:44;;;;;;;22.67;19.33;;;8.10;99.90;;;;;;5067320;28;20236;-80
2022/03/17 07:14:11;;;;;;;21.47;17.83;;;8.10;99.90;;;;;;5068619;28;20626;-80
2022/03/17 07:16:39;;;;;;;22.80;18.47;;;8.20;99.90;;;;;;5067021;28;20221;-82
2022/03/17 07:19:07;;;;;;;25.73;19.73;;;8.20;99.90;;;;;;5068161;28;20585;-80
2022/03/17 07:24:09;;;;;;;26.00;21.47;;;8.20;99.90;;;;;;4997683;28;20670;-76
2022/03/17 07:26:38;;;;;;;28.73;22.27;;;8.30;99.90;;;;;;4985591;28;20283;-76
2022/03/17 07:29:04;;;;;;;26.60;22.57;;;8.30;99.90;;;;;;4996215;28;20193;-75
2022/03/17 07:31:31;;;;;;;29.07;23.00;;;8.30;99.90;;;;;;4985901;28;20206;-76
2022/03/17 07:33:59;;;;;;;28.20;22.63;;;8.40;99.90;;;;;;4987140;28;20223;-76
2022/03/17 07:36:26;;;;;;;26.93;22.33;;;8.40;99.90;;;;;;5002791;28;20242;-76
2022/03/17 07:38:55;;;;;;;25.07;19.30;;;8.50;99.90;;;;;;4998879;28;20256;-75
2022/03/17 07:41:22;;;;;;;28.23;21.13;;;8.60;99.90;;;;;;5002558;28;20210;-76
2022/03/17 07:43:50;;;;;;;27.80;22.00;;;8.60;99.90;;;;;;5000012;28;20212;-76
2022/03/17 07:46:40;;;;;;;26.07;20.70;;;8.60;99.90;;;;;;4954358;28;20228;-75
2022/03/17 07:49:21;;;;;;;24.73;19.70;;;8.60;99.90;;;;;;4978432;28;20694;-76
2022/03/17 07:51:49;;;;;;;25.03;19.27;;;8.70;99.90;;;;;;4986058;28;20736;-75
2022/03/17 07:54:16;;;;;;;26.73;19.77;;;8.70;99.90;;;;;;4981682;28;20193;-77
2022/03/17 07:56:43;;;;;;;26.40;20.07;;;8.80;99.90;;;;;;4998534;28;20217;-75
2022/03/17 07:59:12;;;;;;;25.47;21.13;;;8.80;99.90;;;;;;5000508;28;20336;-76
2022/03/17 08:01:39;;;;;;;26.80;21.07;;;8.90;99.90;;;;;;5004179;28;20195;-75
2022/03/17 08:04:06;;;;;;;30.40;23.20;;;8.90;99.90;;;;;;4982004;28;20680;-75
2022/03/17 08:06:34;;;;;;;35.67;29.03;;;8.90;99.90;;;;;;5002159;28;20192;-76
2022/03/17 08:09:00;;;;;;;35.53;27.20;;;8.80;99.90;;;;;;5000275;28;20217;-76
2022/03/17 08:11:27;;;;;;;32.90;25.00;;;8.80;99.90;;;;;;5002758;28;20589;-76
2022/03/17 08:13:54;;;;;;;32.47;25.60;;;8.90;99.90;;;;;;5002239;28;20270;-76
2022/03/17 08:16:23;;;;;;;30.10;23.50;;;8.90;99.90;;;;;;4999402;28;20661;-75
2022/03/17 08:18:49;;;;;;;28.37;21.83;;;8.90;99.90;;;;;;4984276;28;20251;-75
2022/03/17 08:21:16;;;;;;;28.20;22.60;;;9.00;99.90;;;;;;4991977;28;20224;-77
2022/03/17 08:23:43;;;;;;;30.77;23.87;;;9.00;99.90;;;;;;4987464;28;20231;-76
2022/03/17 08:26:10;;;;;;;30.60;23.70;;;9.10;99.90;;;;;;4987221;28;20197;-76
2022/03/17 08:28:38;;;;;;;36.93;25.83;;;9.10;99.90;;;;;;5004272;28;20716;-76
2022/03/17 08:31:04;;;;;;;30.23;24.43;;;9.10;99.90;;;;;;5005401;28;20654;-77
2022/03/17 08:33:34;;;;;;;30.30;23.93;;;9.20;99.90;;;;;;5001046;28;20235;-76
2022/03/17 08:36:01;;;;;;;31.53;23.37;;;9.30;99.90;;;;;;4999697;28;20209;-76
2022/03/17 08:38:28;;;;;;;31.47;23.93;;;9.30;99.90;;;;;;4995294;28;20732;-75
2022/03/17 08:40:55;;;;;;;31.17;23.83;;;9.40;99.90;;;;;;5003683;28;20201;-76
2022/03/17 08:43:22;;;;;;;27.53;21.60;;;9.50;99.90;;;;;;5006012;28;20228;-76
2022/03/17 08:51:25;;;;;;;25.40;20.30;;;9.60;99.90;;;;;;5004102;28;20205;-76
2022/03/17 08:53:52;;;;;;;23.47;18.67;;;9.60;99.90;;;;;;5002076;28;20743;-76
2022/03/17 08:56:19;;;;;;;28.97;22.97;;;9.60;99.90;;;;;;5004252;28;20223;-76
2022/03/17 08:58:46;;;;;;;30.03;22.43;;;9.70;99.90;;;;;;5005022;28;20203;-75
2022/03/17 09:01:12;;;;;;;29.07;23.33;;;9.60;99.90;;;;;;5001728;28;20194;-76
2022/03/17 09:03:41;;;;;;;29.50;23.10;;;9.60;99.90;;;;;;4985604;28;20316;-77
2022/03/17 09:06:10;;;;;;;27.77;21.90;;;9.70;99.90;;;;;;4985495;28;20284;-75
2022/03/17 09:08:37;;;;;;;28.57;21.90;;;9.70;99.90;;;;;;5002769;28;20189;-76
2022/03/17 09:11:04;;;;;;;26.03;21.03;;;9.80;99.90;;;;;;5004820;28;20195;-76
2022/03/17 09:13:32;;;;;;;25.57;20.17;;;9.80;99.90;;;;;;5000299;28;20232;-76
2022/03/17 09:15:59;;;;;;;26.43;21.67;;;9.90;99.90;;;;;;4997793;28;20245;-76
2022/03/17 09:18:27;;;;;;;27.37;21.67;;;10.00;99.90;;;;;;5005384;28;20193;-76
2022/03/17 09:20:56;;;;;;;23.50;20.33;;;10.00;99.90;;;;;;4998663;28;20217;-76
2022/03/17 09:23:23;;;;;;;28.67;22.50;;;10.10;99.90;;;;;;5005714;28;20233;-76
2022/03/17 09:25:50;;;;;;;27.07;21.00;;;10.10;99.90;;;;;;5004055;28;20203;-76
2022/03/17 09:28:17;;;;;;;27.83;22.40;;;10.20;99.90;;;;;;4982638;28;20206;-76
2022/03/17 09:30:44;;;;;;;29.53;23.97;;;10.30;99.90;;;;;;4984638;28;20197;-76
2022/03/17 09:33:11;;;;;;;27.83;22.70;;;10.20;99.90;;;;;;4992072;28;20267;-75
2022/03/17 09:35:38;;;;;;;25.00;20.40;;;10.20;99.90;;;;;;5005948;28;20200;-76
2022/03/17 09:38:07;;;;;;;29.53;22.50;;;10.30;99.90;;;;;;5013944;28;20200;-76
2022/03/17 09:40:35;;;;;;;27.83;23.47;;;10.20;99.90;;;;;;5013943;28;20540;-76
2022/03/17 09:43:21;;;;;;;26.27;21.63;;;10.30;99.90;;;;;;4996656;28;20260;-76
2022/03/17 09:45:51;;;;;;;24.70;20.57;;;10.40;99.90;;;;;;4996522;28;20204;-77
2022/03/17 09:48:20;;;;;;;23.03;19.27;;;10.50;99.90;;;;;;5013613;28;20247;-76
2022/03/17 09:50:49;;;;;;;24.40;19.70;;;10.60;99.90;;;;;;4996509;28;20235;-76
2022/03/17 09:53:17;;;;;;;26.20;20.90;;;10.60;99.90;;;;;;4996500;28;20723;-75
2022/03/17 09:55:44;;;;;;;25.93;22.47;;;10.70;99.90;;;;;;4988415;28;20256;-76
2022/03/17 09:58:12;;;;;;;29.67;24.20;;;10.70;99.90;;;;;;4989186;28;20229;-76
2022/03/17 10:00:52;;;;;;;27.50;23.43;;;10.70;99.90;;;;;;4990820;28;20201;-77
2022/03/17 10:03:21;;;;;;;25.17;22.47;;;10.80;99.90;;;;;;5003147;28;20217;-76
2022/03/17 10:05:50;;;;;;;27.60;24.63;;;10.80;99.90;;;;;;5003340;28;20249;-76
2022/03/17 10:08:20;;;;;;;28.90;25.80;;;10.80;99.90;;;;;;5003481;28;20195;-76
2022/03/17 10:10:48;;;;;;;27.80;24.77;;;10.80;99.90;;;;;;5002936;28;20206;-77
2022/03/17 10:13:17;;;;;;;29.70;26.70;;;10.90;99.90;;;;;;4985289;28;20323;-76
2022/03/17 10:15:46;;;;;;;30.37;27.17;;;10.90;99.90;;;;;;4998542;28;20289;-77
2022/03/17 10:18:23;;;;;;;30.80;27.63;;;11.00;99.90;;;;;;5002905;28;20220;-78
2022/03/17 10:21:06;;;;;;;31.23;27.93;;;11.00;99.90;;;;;;5003837;28;20621;-76
2022/03/17 10:23:35;;;;;;;30.50;27.23;;;11.00;99.90;;;;;;4975935;28;20228;-76
2022/03/17 10:26:01;;;;;;;34.53;29.07;;;11.10;99.90;;;;;;4998481;28;20194;-75
2022/03/17 10:28:28;;;;;;;31.57;28.27;;;11.00;99.90;;;;;;4993007;28;20204;-76
2022/03/17 10:31:07;;;;;;;30.73;27.43;;;11.10;99.90;;;;;;5002060;28;20585;-76
2022/03/17 10:33:34;;;;;;;34.70;30.87;;;11.20;99.90;;;;;;4994016;28;20220;-76
2022/03/17 10:36:15;;;;;;;32.77;29.37;;;11.10;99.90;;;;;;4987751;28;20572;-76
2022/03/17 10:38:45;;;;;;;33.83;30.23;;;11.10;99.90;;;;;;4998194;28;20204;-76
2022/03/17 10:41:12;;;;;;;31.60;28.20;;;11.20;99.90;;;;;;5003016;28;20210;-75
2022/03/17 10:43:41;;;;;;;34.00;30.37;;;11.30;99.90;;;;;;5001650;28;20241;-76
2022/03/17 10:46:11;;;;;;;34.50;30.83;;;11.30;99.90;;;;;;5001620;28;20201;-76
2022/03/17 10:48:54;;;;;;;38.00;31.23;;;11.30;99.90;;;;;;4982839;28;20200;-75
2022/03/17 10:51:32;;;;;;;36.47;32.57;;;11.20;99.90;;;;;;4999651;28;20206;-76
2022/03/17 10:54:08;;;;;;;38.90;32.93;;;11.30;99.90;;;;;;4981977;28;20233;-76
2022/03/17 10:56:36;;;;;;;36.03;31.47;;;11.30;99.90;;;;;;4993926;28;20337;-76
2022/03/17 10:59:11;;;;;;;33.40;30.00;;;11.30;99.90;;;;;;4988445;28;20206;-77
2022/03/17 11:01:57;;;;;;;35.90;32.03;;;11.40;99.90;;;;;;4996666;28;20198;-77
2022/03/17 11:04:24;;;;;;;31.47;28.33;;;11.50;99.90;;;;;;5003910;28;20190;-76
2022/03/17 11:06:54;;;;;;;33.73;30.23;;;11.60;99.90;;;;;;4996933;28;20207;-76
2022/03/17 11:09:23;;;;;;;31.90;28.60;;;11.70;99.90;;;;;;5003714;28;20211;-76
2022/03/17 11:11:50;;;;;;;32.13;28.80;;;11.70;99.90;;;;;;4982377;28;20238;-77
2022/03/17 11:14:18;;;;;;;31.23;27.93;;;11.70;99.90;;;;;;5001877;28;20200;-77
2022/03/17 11:16:50;;;;;;;37.33;32.63;;;11.70;99.90;;;;;;4999912;28;20215;-76
2022/03/17 11:19:18;;;;;;;33.97;30.27;;;11.60;99.90;;;;;;5000544;28;20257;-76
2022/03/17 11:21:48;;;;;;;35.13;31.43;;;11.60;99.90;;;;;;4983235;28;20696;-76
2022/03/17 11:24:19;;;;;;;38.40;32.43;;;11.60;99.90;;;;;;4986191;28;20202;-77
2022/03/17 11:26:48;;;;;;;38.07;34.10;;;11.50;99.90;;;;;;5001083;28;20201;-76
2022/03/17 11:29:17;;;;;;;37.03;32.67;;;11.50;99.90;;;;;;4997856;28;20203;-77
2022/03/17 11:31:52;;;;;;;33.73;30.13;;;11.50;99.90;;;;;;4982675;28;20214;-76
2022/03/17 11:34:43;;;;;;;33.37;29.83;;;11.40;99.90;;;;;;5002010;28;20202;-76
2022/03/17 11:37:22;;;;;;;33.43;29.97;;;11.50;99.90;;;;;;4982583;28;20249;-76
2022/03/17 11:39:50;;;;;;;31.83;28.43;;;11.50;99.90;;;;;;4986059;28;20223;-75
2022/03/17 11:42:36;;;;;;;31.47;28.17;;;11.70;99.90;;;;;;4991814;28;20266;-75
2022/03/17 11:45:08;;;;;;;31.00;27.70;;;11.70;99.90;;;;;;4980018;28;20197;-76
2022/03/17 11:47:37;;;;;;;30.07;27.07;;;11.80;99.90;;;;;;4981663;28;20665;-76
2022/03/17 11:50:26;;;;;;;30.33;26.90;;;11.80;99.90;;;;;;5001474;28;20278;-75
2022/03/17 11:52:57;;;;;;;31.63;28.50;;;11.90;99.90;;;;;;4979772;28;20698;-76
2022/03/17 11:55:36;;;;;;;31.23;27.93;;;11.90;99.90;;;;;;5000704;28;20216;-75
2022/03/17 11:58:46;;;;;;;29.80;26.80;;;11.80;99.90;;;;;;5002611;28;20347;-77
2022/03/17 12:01:22;;;;;;;29.23;26.27;;;11.80;99.90;;;;;;4946037;28;20204;-75
2022/03/17 12:03:55;;;;;;;28.13;25.33;;;11.90;99.90;;;;;;4929888;29;20250;-76
2022/03/17 12:06:24;;;;;;;29.63;26.50;;;12.00;99.90;;;;;;4963317;28;20212;-76
2022/03/17 12:08:55;;;;;;;28.03;25.13;;;12.00;99.90;;;;;;4980946;28;20205;-76
2022/03/17 12:11:24;;;;;;;28.40;25.50;;;12.00;99.90;;;;;;4990496;28;20263;-76
2022/03/17 12:14:20;;;;;;;29.70;26.60;;;12.00;99.90;;;;;;5000247;28;20274;-76
2022/03/17 12:16:49;;;;;;;30.50;26.97;;;12.00;99.90;;;;;;4993804;28;20216;-76
2022/03/17 12:19:34;;;;;;;27.23;24.33;;;12.00;99.90;;;;;;5001934;28;20568;-76
2022/03/17 12:22:12;;;;;;;29.20;26.10;;;12.00;99.90;;;;;;4996489;28;20224;-76
2022/03/17 12:24:43;;;;;;;30.40;27.20;;;12.00;99.90;;;;;;4998894;28;20196;-77
2022/03/17 12:27:13;;;;;;;29.13;26.07;;;12.00;99.90;;;;;;4983427;28;20202;-76
2022/03/17 12:29:43;;;;;;;29.20;26.13;;;12.00;99.90;;;;;;4996781;28;20200;-76
2022/03/17 12:32:12;;;;;;;29.60;26.43;;;12.00;99.90;;;;;;4978412;28;20238;-77
2022/03/17 12:34:39;;;;;;;29.87;26.43;;;11.90;99.90;;;;;;4981708;28;20673;-77
2022/03/17 12:37:08;;;;;;;29.60;26.27;;;11.90;99.90;;;;;;4987139;28;20215;-77
2022/03/17 12:39:36;;;;;;;30.33;27.10;;;12.00;99.90;;;;;;4983543;28;20197;-76
2022/03/17 12:42:13;;;;;;;31.77;28.33;;;11.90;99.90;;;;;;5000196;28;20256;-76
2022/03/17 12:44:50;;;;;;;31.27;27.87;;;11.90;99.90;;;;;;4976447;28;20231;-76
2022/03/17 12:47:18;;;;;;;30.57;27.20;;;12.00;99.90;;;;;;5001397;28;20691;-75
2022/03/17 12:49:45;;;;;;;30.40;26.20;;;12.00;99.90;;;;;;5005809;28;20207;-77
2022/03/17 12:52:13;;;;;;;29.47;26.47;;;12.00;99.90;;;;;;4993833;28;20227;-76
2022/03/17 12:54:40;;;;;;;28.97;25.90;;;12.10;99.90;;;;;;5011575;28;20564;-76
2022/03/17 12:57:07;;;;;;;34.87;28.43;;;12.10;99.90;;;;;;5010159;28;20262;-76
2022/03/17 12:59:34;;;;;;;30.53;27.33;;;12.10;99.90;;;;;;5005739;28;20193;-76